TimeCST,TemperatureF,Dew PointF,Humidity,Sea Level PressureIn,VisibilityMPH,Wind Direction,Wind SpeedMPH,Gust SpeedMPH,PrecipitationIn,Events,Conditions,WindDirDegrees,DateUTC
12:55 AM,48.2,30.2,50,30.23,10.0,SE,6.9,-,N/A,,Clear,130,2012-11-18 06:55:00
1:15 AM,48.2,30.2,50,30.23,10.0,SE,5.8,-,N/A,,Clear,130,2012-11-18 07:15:00
1:35 AM,48.2,30.2,50,30.23,10.0,SE,6.9,-,N/A,,Clear,140,2012-11-18 07:35:00
1:55 AM,48.2,30.2,50,30.22,10.0,SE,6.9,-,N/A,,Clear,130,2012-11-18 07:55:00
2:15 AM,48.2,30.2,50,30.21,10.0,ESE,6.9,-,N/A,,Clear,120,2012-11-18 08:15:00
2:35 AM,48.2,30.2,50,30.20,10.0,ESE,6.9,-,N/A,,Clear,120,2012-11-18 08:35:00
2:55 AM,48.2,30.2,50,30.21,10.0,SSE,5.8,-,N/A,,Clear,150,2012-11-18 08:55:00
3:15 AM,48.2,30.2,50,30.21,10.0,SE,5.8,-,N/A,,Clear,130,2012-11-18 09:15:00
3:35 AM,48.2,30.2,50,30.22,10.0,SE,6.9,-,N/A,,Clear,130,2012-11-18 09:35:00
3:55 AM,48.2,30.2,50,30.21,10.0,SE,6.9,-,N/A,,Clear,130,2012-11-18 09:55:00
4:15 AM,48.2,30.2,50,30.21,10.0,SE,8.1,-,N/A,,Clear,130,2012-11-18 10:15:00
4:35 AM,48.2,32.0,54,30.21,10.0,SE,8.1,-,N/A,,Clear,130,2012-11-18 10:35:00
4:55 AM,48.2,33.8,58,30.21,10.0,SE,6.9,-,N/A,,Clear,130,2012-11-18 10:55:00
5:15 AM,46.4,33.8,62,30.21,10.0,SE,9.2,-,N/A,,Clear,130,2012-11-18 11:15:00
5:35 AM,46.4,33.8,62,30.21,10.0,SE,9.2,-,N/A,,Clear,130,2012-11-18 11:35:00
5:55 AM,46.4,35.6,66,30.21,10.0,SE,9.2,-,N/A,,Clear,140,2012-11-18 11:55:00
6:15 AM,48.2,35.6,62,30.21,10.0,SE,9.2,-,N/A,,Clear,140,2012-11-18 12:15:00
6:35 AM,48.2,35.6,62,30.21,10.0,SE,9.2,-,N/A,,Clear,130,2012-11-18 12:35:00
6:55 AM,48.2,37.4,66,30.22,10.0,SE,9.2,-,N/A,,Clear,140,2012-11-18 12:55:00
7:15 AM,48.2,37.4,66,30.22,10.0,SE,10.4,-,N/A,,Clear,140,2012-11-18 13:15:00
7:55 AM,48.2,39.2,71,30.22,10.0,SE,8.1,-,N/A,,Clear,140,2012-11-18 13:55:00
8:15 AM,51.8,41.0,67,30.23,10.0,SE,8.1,-,N/A,,Clear,140,2012-11-18 14:15:00
8:35 AM,53.6,42.8,67,30.24,10.0,SE,15.0,-,N/A,,Clear,140,2012-11-18 14:35:00
8:55 AM,55.4,42.8,63,30.24,10.0,SSE,11.5,-,N/A,,Clear,150,2012-11-18 14:55:00
9:15 AM,55.4,42.8,63,30.24,10.0,SSE,13.8,-,N/A,,Clear,150,2012-11-18 15:15:00
9:35 AM,57.2,44.6,63,30.24,10.0,SSE,11.5,-,N/A,,Clear,150,2012-11-18 15:35:00
9:55 AM,60.8,44.6,55,30.24,10.0,SSE,12.7,-,N/A,,Clear,160,2012-11-18 15:55:00
10:15 AM,62.6,46.4,55,30.25,10.0,SSE,15.0,-,N/A,,Clear,150,2012-11-18 16:15:00
10:35 AM,62.6,46.4,55,30.24,10.0,SSE,16.1,-,N/A,,Clear,150,2012-11-18 16:35:00
10:55 AM,62.6,46.4,55,30.23,10.0,SE,15.0,-,N/A,,Clear,140,2012-11-18 16:55:00
11:15 AM,64.4,46.4,52,30.22,10.0,SSE,16.1,-,N/A,,Clear,160,2012-11-18 17:15:00
11:35 AM,64.4,48.2,56,30.22,10.0,South,19.6,-,N/A,,Clear,180,2012-11-18 17:35:00
11:55 AM,64.4,48.2,56,30.21,10.0,South,15.0,-,N/A,,Clear,170,2012-11-18 17:55:00
12:15 PM,64.4,48.2,56,30.19,10.0,SSE,15.0,-,N/A,,Clear,150,2012-11-18 18:15:00
12:35 PM,64.4,48.2,56,30.19,9.0,South,17.3,-,N/A,,Clear,180,2012-11-18 18:35:00
12:55 PM,66.2,48.2,52,30.19,10.0,SSE,12.7,-,N/A,,Clear,160,2012-11-18 18:55:00
1:15 PM,66.2,48.2,52,30.19,10.0,South,13.8,-,N/A,,Clear,180,2012-11-18 19:15:00
1:35 PM,66.2,48.2,52,30.19,10.0,SSE,10.4,-,N/A,,Partly Cloudy,160,2012-11-18 19:35:00
1:55 PM,66.2,48.2,52,30.17,10.0,South,15.0,-,N/A,,Partly Cloudy,180,2012-11-18 19:55:00
2:15 PM,66.2,48.2,52,30.17,10.0,SSE,12.7,-,N/A,,Partly Cloudy,150,2012-11-18 20:15:00
2:35 PM,66.2,48.2,52,30.17,10.0,South,13.8,-,N/A,,Partly Cloudy,180,2012-11-18 20:35:00
2:55 PM,64.4,48.2,56,30.16,10.0,SSE,11.5,-,N/A,,Clear,160,2012-11-18 20:55:00
3:15 PM,64.4,48.2,56,30.16,10.0,SSE,11.5,-,N/A,,Clear,150,2012-11-18 21:15:00
3:35 PM,66.2,50.0,56,30.16,10.0,SSE,11.5,-,N/A,,Scattered Clouds,160,2012-11-18 21:35:00
3:55 PM,66.2,50.0,56,30.17,10.0,South,11.5,-,N/A,,Scattered Clouds,170,2012-11-18 21:55:00
4:15 PM,64.4,50.0,59,30.17,9.0,SSE,9.2,-,N/A,,Mostly Cloudy,160,2012-11-18 22:15:00
4:35 PM,64.4,50.0,59,30.18,9.0,SSE,11.5,-,N/A,,Overcast,160,2012-11-18 22:35:00
4:55 PM,64.4,50.0,59,30.19,10.0,SSE,9.2,-,N/A,,Overcast,160,2012-11-18 22:55:00
5:15 PM,64.4,50.0,59,30.19,10.0,SSE,8.1,-,N/A,,Overcast,150,2012-11-18 23:15:00
5:35 PM,64.4,50.0,59,30.19,10.0,SSE,9.2,-,N/A,,Overcast,150,2012-11-18 23:35:00
5:55 PM,64.4,50.0,59,30.17,10.0,SSE,9.2,-,N/A,,Mostly Cloudy,150,2012-11-18 23:55:00
6:15 PM,62.6,50.0,63,30.20,10.0,SSE,4.6,-,N/A,,Mostly Cloudy,160,2012-11-19 00:15:00
6:35 PM,62.6,50.0,63,30.21,10.0,SSE,6.9,-,N/A,,Overcast,160,2012-11-19 00:35:00
6:55 PM,62.6,50.0,63,30.21,10.0,SSE,5.8,-,N/A,,Overcast,150,2012-11-19 00:55:00
7:15 PM,62.6,50.0,63,30.19,10.0,SE,5.8,-,N/A,,Overcast,130,2012-11-19 01:15:00
7:35 PM,62.6,50.0,63,30.19,10.0,SE,4.6,-,N/A,,Mostly Cloudy,140,2012-11-19 01:35:00
7:55 PM,62.6,50.0,63,30.19,10.0,SSE,5.8,-,N/A,,Clear,150,2012-11-19 01:55:00
8:15 PM,60.8,50.0,68,30.20,10.0,South,3.5,-,N/A,,Clear,170,2012-11-19 02:15:00
8:35 PM,60.8,50.0,68,30.21,10.0,SSE,3.5,-,N/A,,Clear,160,2012-11-19 02:35:00
8:55 PM,60.8,50.0,68,30.21,10.0,SSE,4.6,-,N/A,,Partly Cloudy,160,2012-11-19 02:55:00
9:15 PM,59.0,50.0,72,30.21,10.0,SSE,4.6,-,N/A,,Scattered Clouds,150,2012-11-19 03:15:00
9:35 PM,59.0,50.0,72,30.21,10.0,SSE,3.5,-,N/A,,Clear,160,2012-11-19 03:35:00
9:55 PM,57.2,50.0,77,30.21,10.0,SSE,6.9,-,N/A,,Partly Cloudy,150,2012-11-19 03:55:00
10:35 PM,57.2,48.2,72,30.20,10.0,SSE,3.5,-,N/A,,Clear,150,2012-11-19 04:35:00
11:15 PM,55.4,48.2,77,30.20,10.0,Calm,Calm,-,N/A,,Clear,0,2012-11-19 05:15:00
11:35 PM,55.4,48.2,77,30.19,10.0,SSE,4.6,-,N/A,,Clear,150,2012-11-19 05:35:00
11:55 PM,55.4,48.2,77,30.19,10.0,SSE,5.8,-,N/A,,Clear,150,2012-11-19 05:55:00